createdAt,value
2018-12-04T00:00:34.892Z,0
2018-12-04T00:01:35.863Z,0
2018-12-04T00:02:36.561Z,0
2018-12-04T00:03:37.815Z,0
2018-12-04T00:04:37.524Z,0
2018-12-04T00:05:38.218Z,0
2018-12-04T00:06:38.641Z,0
2018-12-04T00:07:39.472Z,0
2018-12-04T00:08:39.890Z,0
2018-12-04T00:09:41.868Z,0
2018-12-04T00:10:42.284Z,0
2018-12-04T00:11:42.703Z,0
2018-12-04T00:12:43.126Z,0
2018-12-04T00:13:44.267Z,0
2018-12-04T00:14:45.973Z,0
2018-12-04T00:15:46.395Z,0
2018-12-04T00:16:47.648Z,0
2018-12-04T00:17:49.054Z,0
2018-12-04T00:18:48.750Z,0
2018-12-04T00:19:50.043Z,0
2018-12-04T00:20:50.459Z,0
2018-12-04T00:21:51.197Z,0
2018-12-04T00:22:51.617Z,0
2018-12-04T00:23:52.311Z,0
2018-12-04T00:24:52.453Z,0
2018-12-04T00:25:53.601Z,0
2018-12-04T00:26:55.299Z,0
2018-12-04T00:27:55.423Z,0
2018-12-04T00:28:57.121Z,0
2018-12-04T00:29:58.098Z,0
2018-12-04T00:30:58.236Z,0
2018-12-04T00:31:59.493Z,0
2018-12-04T00:33:00.465Z,0
2018-12-04T00:34:00.163Z,0
2018-12-04T00:35:00.583Z,0
2018-12-04T00:36:01.309Z,0
2018-12-04T00:37:01.446Z,0
2018-12-04T00:38:02.858Z,0
2018-12-04T00:39:04.232Z,0
2018-12-04T00:40:05.209Z,0
2018-12-04T00:41:05.640Z,0
2018-12-04T00:42:06.343Z,0
2018-12-04T00:43:06.760Z,0
2018-12-04T00:44:08.461Z,0
2018-12-04T00:45:08.879Z,0
2018-12-04T00:46:09.299Z,0
2018-12-04T00:47:09.713Z,0
2018-12-04T00:48:10.584Z,0
2018-12-04T00:49:11.563Z,0
2018-12-04T00:50:12.537Z,0
2018-12-04T00:51:13.232Z,0
2018-12-04T00:52:14.210Z,0
2018-12-04T00:53:14.352Z,0
2018-12-04T00:54:16.048Z,0
2018-12-04T00:55:17.024Z,0
2018-12-04T00:56:17.174Z,0
2018-12-04T00:57:18.877Z,0
2018-12-04T00:58:19.466Z,0
2018-12-04T00:59:21.164Z,0
2018-12-04T01:00:22.141Z,0
2018-12-04T01:01:22.844Z,0
2018-12-04T01:02:23.539Z,0
2018-12-04T01:03:24.239Z,0
2018-12-04T01:04:24.379Z,0
2018-12-04T01:05:25.800Z,0
2018-12-04T01:06:25.942Z,0
2018-12-04T01:07:26.919Z,0
2018-12-04T01:08:27.468Z,0
2018-12-04T01:09:27.609Z,0
2018-12-04T01:10:28.749Z,0
2018-12-04T01:11:30.445Z,0
2018-12-04T01:12:30.862Z,0
2018-12-04T01:13:31.843Z,0
2018-12-04T01:14:31.983Z,0
2018-12-04T01:15:32.679Z,0
2018-12-04T01:16:33.818Z,0
2018-12-04T01:17:34.943Z,0
2018-12-04T01:18:36.330Z,0
2018-12-04T01:19:37.292Z,0
2018-12-04T01:20:37.982Z,0
2018-12-04T01:21:39.504Z,0
2018-12-04T01:22:39.195Z,0
2018-12-04T01:23:39.885Z,0
2018-12-04T01:24:40.849Z,0
2018-12-04T01:25:41.257Z,0
2018-12-04T01:26:41.664Z,0
2018-12-04T01:27:41.793Z,0
2018-12-04T01:28:42.930Z,0
2018-12-04T01:29:43.342Z,0
2018-12-04T01:30:45.307Z,0
2018-12-04T01:31:45.715Z,0
2018-12-04T01:32:46.954Z,0
2018-12-04T01:33:47.087Z,0
2018-12-04T01:34:49.328Z,0
2018-12-04T01:35:49.736Z,0
2018-12-04T01:36:51.745Z,0
2018-12-04T01:37:51.153Z,0
2018-12-04T01:38:51.969Z,0
2018-12-04T01:39:54.209Z,0
2018-12-04T01:40:53.620Z,0
2018-12-04T01:41:53.748Z,0
2018-12-04T01:42:54.879Z,0
2018-12-04T01:43:55.563Z,0
2018-12-04T01:44:55.974Z,0
2018-12-04T01:45:56.387Z,0
2018-12-04T01:46:58.074Z,0
2018-12-04T01:47:58.756Z,0
2018-12-04T01:48:59.602Z,0
2018-12-04T01:50:00.568Z,0
2018-12-04T01:51:01.016Z,0
2018-12-04T01:52:01.145Z,0
2018-12-04T01:53:02.557Z,0
2018-12-04T01:54:03.519Z,0
2018-12-04T01:55:03.651Z,0
2018-12-04T01:56:04.335Z,0
2018-12-04T01:57:06.300Z,0
2018-12-04T01:58:07.262Z,0
2018-12-04T01:59:06.798Z,0
2018-12-04T02:00:08.489Z,0
2018-12-04T02:01:08.903Z,0
2018-12-04T02:02:09.313Z,0
2018-12-04T02:03:10.001Z,0
2018-12-04T02:04:10.969Z,0
2018-12-04T02:05:11.378Z,0
2018-12-04T02:06:12.064Z,0
2018-12-04T02:07:12.474Z,0
2018-12-04T02:08:12.891Z,0
2018-12-04T02:09:14.001Z,0
2018-12-04T02:10:15.273Z,0
2018-12-04T02:11:16.012Z,0
2018-12-04T02:12:17.257Z,0
2018-12-04T02:13:16.667Z,0
2018-12-04T02:14:17.353Z,0
2018-12-04T02:15:18.319Z,0
2018-12-04T02:16:18.449Z,0
2018-12-04T02:17:20.413Z,0
2018-12-04T02:18:21.097Z,0
2018-12-04T02:19:21.921Z,0
2018-12-04T02:20:22.327Z,0
2018-12-04T02:21:22.490Z,0
2018-12-04T02:22:23.454Z,0
2018-12-04T02:23:24.695Z,0
2018-12-04T02:24:25.102Z,0
2018-12-04T02:25:25.792Z,0
2018-12-04T02:26:26.478Z,0
2018-12-04T02:27:27.160Z,0
2018-12-04T02:28:27.849Z,0
2018-12-04T02:29:29.221Z,0
2018-12-04T02:30:29.744Z,0
2018-12-04T02:31:30.265Z,0
2018-12-04T02:32:29.678Z,0
2018-12-04T02:33:31.201Z,0
2018-12-04T02:34:31.335Z,0
2018-12-04T02:35:32.022Z,0
2018-12-04T02:36:32.712Z,0
2018-12-04T02:37:34.679Z,0
2018-12-04T02:38:35.479Z,0
2018-12-04T02:39:34.928Z,0
2018-12-04T02:40:35.897Z,0
2018-12-04T02:41:37.691Z,0
2018-12-04T02:42:38.109Z,0
2018-12-04T02:43:38.795Z,0
2018-12-04T02:44:39.756Z,0
2018-12-04T02:45:40.171Z,0
2018-12-04T02:46:41.130Z,0
2018-12-04T02:47:41.541Z,0
2018-12-04T02:48:42.248Z,0
2018-12-04T02:49:42.648Z,0
2018-12-04T02:50:43.614Z,0
2018-12-04T02:51:44.293Z,0
2018-12-04T02:52:45.263Z,0
2018-12-04T02:53:46.507Z,0
2018-12-04T02:54:45.918Z,0
2018-12-04T02:55:48.171Z,0
2018-12-04T02:56:47.593Z,0
2018-12-04T02:57:48.997Z,0
2018-12-04T02:58:50.252Z,0
2018-12-04T02:59:50.096Z,0
2018-12-04T03:00:50.784Z,0
2018-12-04T03:01:52.029Z,0
2018-12-04T03:02:52.714Z,0
2018-12-04T03:03:53.683Z,0
2018-12-04T03:04:53.418Z,0
2018-12-04T03:05:54.100Z,0
2018-12-04T03:06:55.815Z,0
2018-12-04T03:07:56.502Z,0
2018-12-04T03:08:57.201Z,0
2018-12-04T03:09:59.188Z,0
2018-12-04T03:10:59.884Z,0
2018-12-04T03:12:01.137Z,0
2018-12-04T03:13:02.153Z,0
2018-12-04T03:14:03.395Z,0
2018-12-04T03:15:03.078Z,0
2018-12-04T03:16:04.037Z,0
2018-12-04T03:17:04.285Z,0
2018-12-04T03:18:04.697Z,0
2018-12-04T03:19:06.499Z,0
2018-12-04T03:20:05.895Z,0
2018-12-04T03:21:06.304Z,0
2018-12-04T03:22:07.549Z,0
2018-12-04T03:23:08.243Z,0
2018-12-04T03:24:09.206Z,0
2018-12-04T03:25:10.728Z,0
2018-12-04T03:26:10.691Z,0
2018-12-04T03:27:11.930Z,0
2018-12-04T03:28:13.732Z,0
2018-12-04T03:29:13.423Z,0
2018-12-04T03:30:14.298Z,0
2018-12-04T03:31:16.466Z,0
2018-12-04T03:32:17.017Z,0
2018-12-04T03:33:17.574Z,0
2018-12-04T03:34:16.977Z,0
2018-12-04T03:35:18.941Z,0
2018-12-04T03:36:18.919Z,0
2018-12-04T03:37:19.370Z,0
2018-12-04T03:38:21.177Z,0
2018-12-04T03:39:20.864Z,0
2018-12-04T03:40:21.979Z,0
2018-12-04T03:41:22.662Z,0
2018-12-04T03:42:23.358Z,0
2018-12-04T03:43:24.356Z,0
2018-12-04T03:44:25.598Z,0
2018-12-04T03:45:25.290Z,0
2018-12-04T03:46:25.711Z,0
2018-12-04T03:47:27.124Z,0
2018-12-04T03:48:28.088Z,0
2018-12-04T03:49:28.835Z,0
2018-12-04T03:50:30.213Z,0
2018-12-04T03:51:31.274Z,0
2018-12-04T03:52:32.795Z,0
2018-12-04T03:53:33.486Z,0
2018-12-04T03:54:34.451Z,0
2018-12-04T03:55:36.471Z,0
2018-12-04T03:56:36.899Z,0
2018-12-04T03:57:38.141Z,0
2018-12-04T03:58:39.385Z,0
2018-12-04T03:59:39.622Z,0
2018-12-04T04:00:40.014Z,0
2018-12-04T04:01:40.193Z,0
2018-12-04T04:02:41.155Z,0
2018-12-04T04:03:41.187Z,0
2018-12-04T04:04:42.708Z,0
2018-12-04T04:05:42.839Z,0
2018-12-04T04:06:44.543Z,0
2018-12-04T04:07:45.233Z,0
2018-12-04T04:08:46.220Z,0
2018-12-04T04:09:47.781Z,0
2018-12-04T04:10:47.795Z,0
2018-12-04T04:11:48.208Z,0
2018-12-04T04:12:49.211Z,0
2018-12-04T04:13:49.334Z,0
2018-12-04T04:14:51.021Z,0
2018-12-04T04:15:51.480Z,0
2018-12-04T04:16:52.450Z,0
2018-12-04T04:17:53.413Z,0
2018-12-04T04:18:53.542Z,0
2018-12-04T04:19:54.680Z,0
2018-12-04T04:20:56.083Z,0
2018-12-04T04:21:57.050Z,0
2018-12-04T04:22:58.585Z,0
2018-12-04T04:23:57.714Z,0
2018-12-04T04:24:59.518Z,0
2018-12-04T04:25:59.931Z,0
2018-12-04T04:27:01.732Z,0
2018-12-04T04:28:01.137Z,0
2018-12-04T04:29:01.836Z,0
2018-12-04T04:30:03.159Z,0
2018-12-04T04:31:03.280Z,0
2018-12-04T04:32:03.975Z,0
2018-12-04T04:33:04.945Z,0
2018-12-04T04:34:06.460Z,0
2018-12-04T04:35:07.146Z,0
2018-12-04T04:36:07.832Z,0
2018-12-04T04:37:09.364Z,0
2018-12-04T04:38:09.046Z,0
2018-12-04T04:39:10.013Z,0
2018-12-04T04:40:11.282Z,0
2018-12-04T04:41:11.667Z,0
2018-12-04T04:42:12.909Z,0
2018-12-04T04:43:13.719Z,0
2018-12-04T04:44:13.128Z,0
2018-12-04T04:45:14.088Z,0
2018-12-04T04:46:16.199Z,0
2018-12-04T04:47:15.608Z,0
2018-12-04T04:48:16.057Z,0
2018-12-04T04:49:17.023Z,0
2018-12-04T04:50:18.283Z,0
2018-12-04T04:51:18.122Z,0
2018-12-04T04:52:19.100Z,0
2018-12-04T04:53:20.338Z,0
2018-12-04T04:54:20.600Z,0
2018-12-04T04:55:21.141Z,0
2018-12-04T04:56:21.386Z,0
2018-12-04T04:57:22.458Z,0
2018-12-04T04:58:22.703Z,0
2018-12-04T04:59:23.431Z,0
2018-12-04T05:00:24.400Z,0
2018-12-04T05:01:25.801Z,0
2018-12-04T05:02:25.209Z,0
2018-12-04T05:03:26.622Z,0
2018-12-04T05:04:27.588Z,0
2018-12-04T05:05:28.005Z,0
2018-12-04T05:06:29.256Z,0
2018-12-04T05:07:29.710Z,0
2018-12-04T05:08:31.245Z,0
2018-12-04T05:09:30.652Z,0
2018-12-04T05:10:31.621Z,0
2018-12-04T05:11:31.730Z,0
2018-12-04T05:12:32.973Z,0
2018-12-04T05:13:33.209Z,0
2018-12-04T05:14:32.894Z,0
2018-12-04T05:15:34.408Z,0
2018-12-04T05:16:35.205Z,0
2018-12-04T05:17:34.619Z,0
2018-12-04T05:18:35.909Z,0
2018-12-04T05:19:35.884Z,0
2018-12-04T05:20:36.289Z,0
2018-12-04T05:21:37.245Z,0
2018-12-04T05:22:37.930Z,0
2018-12-04T05:23:38.343Z,0
2018-12-04T05:24:39.749Z,0
2018-12-04T05:25:40.154Z,0
2018-12-04T05:26:41.113Z,0
2018-12-04T05:27:42.353Z,0
2018-12-04T05:28:43.355Z,0
2018-12-04T05:29:44.044Z,0
2018-12-04T05:30:44.780Z,0
2018-12-04T05:31:44.930Z,0
2018-12-04T05:32:46.380Z,0
2018-12-04T05:33:47.509Z,0
2018-12-04T05:34:48.637Z,0
2018-12-04T05:35:50.315Z,0
2018-12-04T05:36:50.999Z,0
2018-12-04T05:37:50.960Z,0
2018-12-04T05:38:51.652Z,0
2018-12-04T05:39:52.611Z,0
2018-12-04T05:40:53.572Z,0
2018-12-04T05:41:53.407Z,0
2018-12-04T05:42:54.090Z,0
2018-12-04T05:43:54.775Z,0
2018-12-04T05:44:55.185Z,0
2018-12-04T05:45:56.591Z,0
2018-12-04T05:46:57.274Z,0
2018-12-04T05:47:58.240Z,0
2018-12-04T05:48:58.645Z,0
2018-12-04T05:50:01.982Z,0
2018-12-04T05:51:00.668Z,0
2018-12-04T05:52:01.209Z,0
2018-12-04T05:53:02.168Z,0
2018-12-04T05:54:03.133Z,0
2018-12-04T05:55:04.375Z,0
2018-12-04T05:56:04.502Z,0
2018-12-04T05:57:06.298Z,0
2018-12-04T05:58:06.259Z,0
2018-12-04T05:59:05.941Z,0
2018-12-04T06:00:06.625Z,0
2018-12-04T06:01:06.752Z,0
2018-12-04T06:02:07.302Z,0
2018-12-04T06:03:08.707Z,0
2018-12-04T06:04:09.440Z,0
2018-12-04T06:05:09.846Z,0
2018-12-04T06:06:10.528Z,0
2018-12-04T06:07:10.932Z,0
2018-12-04T06:08:11.894Z,0
2018-12-04T06:09:12.573Z,0
2018-12-04T06:10:12.980Z,0
2018-12-04T06:11:13.115Z,0
2018-12-04T06:12:14.753Z,0
2018-12-04T06:13:14.996Z,0
2018-12-04T06:14:14.404Z,0
2018-12-04T06:15:16.654Z,0
2018-12-04T06:16:17.097Z,0
2018-12-04T06:17:17.507Z,0
2018-12-04T06:18:17.638Z,0
2018-12-04T06:19:18.325Z,0
2018-12-04T06:20:20.007Z,0
2018-12-04T06:21:20.971Z,0
2018-12-04T06:22:21.788Z,0
2018-12-04T06:23:23.038Z,0
2018-12-04T06:24:23.278Z,0
2018-12-04T06:25:24.518Z,0
2018-12-04T06:26:24.202Z,0
2018-12-04T06:27:25.608Z,0
2018-12-04T06:28:26.849Z,0
2018-12-04T06:29:27.534Z,0
2018-12-04T06:30:28.222Z,0
2018-12-04T06:31:28.907Z,0
2018-12-04T06:32:29.448Z,0
2018-12-04T06:33:30.414Z,0
2018-12-04T06:34:31.142Z,0
2018-12-04T06:35:31.550Z,0
2018-12-04T06:36:31.956Z,0
2018-12-04T06:37:32.365Z,0
2018-12-04T06:38:33.079Z,0
2018-12-04T06:39:33.210Z,0
2018-12-04T06:40:34.895Z,0
2018-12-04T06:41:35.297Z,0
2018-12-04T06:42:35.831Z,0
2018-12-04T06:43:36.242Z,0
2018-12-04T06:44:37.947Z,0
2018-12-04T06:45:38.634Z,0
2018-12-04T06:46:39.040Z,0
2018-12-04T06:47:39.743Z,0
2018-12-04T06:48:40.430Z,0
2018-12-04T06:49:40.836Z,0
2018-12-04T06:50:42.078Z,0
2018-12-04T06:51:42.209Z,0
2018-12-04T06:52:43.019Z,0
2018-12-04T06:53:44.705Z,0
2018-12-04T06:54:45.107Z,0
2018-12-04T06:55:45.792Z,0
2018-12-04T06:56:45.962Z,0
2018-12-04T06:57:47.639Z,0
2018-12-04T06:58:48.050Z,0
2018-12-04T06:59:50.011Z,0
2018-12-04T07:00:50.421Z,0
2018-12-04T07:01:51.113Z,5.63
2018-12-04T07:02:51.943Z,5.63
2018-12-04T07:03:53.576Z,5.63
2018-12-04T07:04:54.073Z,5.63
2018-12-04T07:05:56.248Z,0
2018-12-04T07:06:57.337Z,0
2018-12-04T07:08:00.592Z,0
2018-12-04T07:08:57.994Z,0
2018-12-04T07:09:58.955Z,0
2018-12-04T07:10:59.363Z,0
2018-12-04T07:12:04.942Z,0
2018-12-04T07:13:06.625Z,0
2018-12-04T07:14:06.755Z,0
2018-12-04T07:15:08.490Z,0
2018-12-04T07:16:09.179Z,0
2018-12-04T07:17:12.641Z,0
2018-12-04T07:18:10.406Z,0
2018-12-04T07:19:10.085Z,0
2018-12-04T07:20:11.044Z,0
2018-12-04T07:21:25.997Z,0
2018-12-04T07:22:29.400Z,0
2018-12-04T07:23:27.997Z,0
2018-12-04T07:24:26.404Z,0
2018-12-04T07:25:26.530Z,0
2018-12-04T07:26:27.663Z,0
2018-12-04T07:27:28.901Z,0
2018-12-04T07:28:29.605Z,0
2018-12-04T07:29:30.845Z,0
2018-12-04T07:30:29.975Z,0
2018-12-04T07:31:31.662Z,0
2018-12-04T07:32:44.254Z,0
2018-12-04T07:33:45.085Z,0
2018-12-04T07:34:50.074Z,0
2018-12-04T07:35:48.809Z,0
2018-12-04T07:36:53.137Z,0
2018-12-04T07:37:51.957Z,0
2018-12-04T07:38:51.503Z,0
2018-12-04T07:39:51.911Z,0
2018-12-04T07:40:52.358Z,0
2018-12-04T07:41:56.080Z,0
2018-12-04T07:43:15.087Z,5.63
2018-12-04T07:43:27.122Z,5.63
2018-12-04T07:43:34.794Z,5.63
2018-12-04T07:44:34.205Z,5.63
2018-12-04T07:45:34.890Z,5.63
2018-12-04T07:46:35.059Z,5.63
2018-12-04T07:47:36.463Z,5.63
2018-12-04T07:48:38.014Z,5.63
2018-12-04T07:49:43.980Z,11.25
2018-12-04T07:49:51.907Z,11.25
2018-12-04T07:51:03.899Z,11.25
2018-12-04T07:52:09.436Z,16.88
2018-12-04T07:53:07.678Z,22.5
2018-12-04T07:54:07.366Z,22.5
2018-12-04T07:55:07.778Z,28.13
2018-12-04T07:56:09.189Z,28.13
2018-12-04T07:57:27.702Z,28.13
2018-12-04T07:57:35.609Z,28.13
2018-12-04T07:58:34.901Z,33.75
2018-12-04T07:59:36.161Z,33.75
2018-12-04T08:00:53.547Z,33.75
2018-12-04T08:01:54.816Z,33.75
2018-12-04T08:02:04.774Z,33.75
2018-12-04T08:03:02.251Z,33.75
2018-12-04T08:04:08.093Z,39.38
2018-12-04T08:04:15.704Z,39.38
2018-12-04T08:05:22.225Z,45
2018-12-04T08:05:28.736Z,50.63
2018-12-04T08:06:29.596Z,50.63
2018-12-04T08:07:30.004Z,50.63
2018-12-04T08:08:33.590Z,50.63
2018-12-04T08:09:44.901Z,45
2018-12-04T08:10:57.126Z,45
2018-12-04T08:11:57.231Z,45
2018-12-04T08:12:57.916Z,45
2018-12-04T08:13:58.601Z,50.63
2018-12-04T08:14:59.008Z,56.25
2018-12-04T08:15:59.463Z,56.25
2018-12-04T08:16:59.869Z,67.5
2018-12-04T08:18:00.553Z,67.5
2018-12-04T08:19:01.239Z,67.5
2018-12-04T08:20:01.932Z,73.13
2018-12-04T08:21:03.249Z,67.5
2018-12-04T08:22:04.005Z,67.5
2018-12-04T08:23:04.577Z,61.88
2018-12-04T08:24:05.433Z,61.88
2018-12-04T08:25:05.983Z,61.88
2018-12-04T08:26:05.117Z,61.88
2018-12-04T08:27:07.357Z,56.25
2018-12-04T08:28:06.768Z,50.63
2018-12-04T08:29:06.915Z,45
2018-12-04T08:30:07.606Z,45
2018-12-04T08:31:09.625Z,39.38
2018-12-04T08:32:11.380Z,39.38
2018-12-04T08:33:11.623Z,39.38
2018-12-04T08:34:11.312Z,39.38
2018-12-04T08:35:14.231Z,45
2018-12-04T08:36:13.444Z,50.63
2018-12-04T08:37:16.973Z,50.63
2018-12-04T08:38:15.664Z,56.25
2018-12-04T08:39:15.799Z,56.25
2018-12-04T08:40:17.209Z,50.63
2018-12-04T08:41:17.660Z,50.63
2018-12-04T08:42:19.042Z,50.63
2018-12-04T08:43:19.177Z,50.63
2018-12-04T08:44:20.307Z,56.25
2018-12-04T08:45:21.439Z,56.25
2018-12-04T08:46:22.404Z,56.25
2018-12-04T08:47:22.814Z,45
2018-12-04T08:48:24.058Z,39.38
2018-12-04T08:49:23.744Z,39.38
2018-12-04T08:50:24.708Z,39.38
2018-12-04T08:51:25.673Z,39.38
2018-12-04T08:52:26.601Z,45
2018-12-04T08:53:27.842Z,45
2018-12-04T08:54:27.974Z,50.63
2018-12-04T08:55:29.945Z,45
2018-12-04T08:56:31.977Z,45
2018-12-04T08:57:32.664Z,45
2018-12-04T08:58:33.630Z,50.63
2018-12-04T08:59:34.040Z,56.25
2018-12-04T09:00:34.729Z,67.5
2018-12-04T09:01:35.971Z,90
2018-12-04T09:02:36.067Z,95.63
2018-12-04T09:03:36.751Z,67.5
2018-12-04T09:04:36.884Z,61.88
2018-12-04T09:05:53.764Z,61.88
2018-12-04T09:06:53.570Z,61.88
2018-12-04T09:07:53.417Z,73.13
2018-12-04T09:08:56.001Z,73.13
2018-12-04T09:09:54.820Z,73.13
2018-12-04T09:10:55.508Z,61.88
2018-12-04T09:11:57.243Z,56.25
2018-12-04T09:12:57.377Z,45
2018-12-04T09:13:59.349Z,45
2018-12-04T09:14:59.543Z,45
2018-12-04T09:16:00.504Z,50.63
2018-12-04T09:17:01.881Z,67.5
2018-12-04T09:18:02.294Z,90
2018-12-04T09:19:04.170Z,106.88
2018-12-04T09:20:05.317Z,95.63
2018-12-04T09:21:05.242Z,90
2018-12-04T09:22:06.532Z,90
2018-12-04T09:23:06.551Z,101.25
2018-12-04T09:24:07.531Z,112.5
2018-12-04T09:25:07.997Z,123.75
2018-12-04T09:26:09.018Z,118.13
2018-12-04T09:27:11.279Z,95.63
2018-12-04T09:28:12.735Z,78.75
2018-12-04T09:29:12.409Z,84.38
2018-12-04T09:30:13.386Z,90
2018-12-04T09:31:13.087Z,112.5
2018-12-04T09:32:14.051Z,168.75
2018-12-04T09:33:14.462Z,219.38
2018-12-04T09:34:15.427Z,236.25
2018-12-04T09:35:16.138Z,241.88
2018-12-04T09:36:16.550Z,253.13
2018-12-04T09:37:18.503Z,258.75
2018-12-04T09:38:17.640Z,247.5
2018-12-04T09:39:36.826Z,208.13
2018-12-04T09:39:49.046Z,202.5
2018-12-04T09:39:57.025Z,196.88
2018-12-04T09:40:56.009Z,196.88
2018-12-04T09:41:57.429Z,247.5
2018-12-04T09:43:03.948Z,326.25
2018-12-04T09:43:10.175Z,427.5
2018-12-04T09:44:11.566Z,360
2018-12-04T09:45:11.988Z,376.88
2018-12-04T09:46:12.689Z,455.63
2018-12-04T09:47:13.388Z,388.13
2018-12-04T09:48:13.516Z,348.75
2018-12-04T09:49:15.811Z,270
2018-12-04T09:50:15.426Z,191.25
2018-12-04T09:51:15.844Z,140.63
2018-12-04T09:52:16.271Z,101.25
2018-12-04T09:53:17.414Z,61.88
2018-12-04T09:54:17.861Z,45
2018-12-04T09:55:18.315Z,39.38
2018-12-04T09:56:19.005Z,33.75
2018-12-04T09:57:20.737Z,50.63
2018-12-04T09:58:20.758Z,67.5
2018-12-04T09:59:21.222Z,101.25
2018-12-04T10:00:22.358Z,129.38
2018-12-04T10:01:23.769Z,123.75
2018-12-04T10:02:24.929Z,101.25
2018-12-04T10:03:27.419Z,84.38
2018-12-04T10:04:28.201Z,78.75
2018-12-04T10:05:29.314Z,67.5
2018-12-04T10:06:34.751Z,50.63
2018-12-04T10:06:42.335Z,50.63
2018-12-04T10:07:43.454Z,45
2018-12-04T10:08:43.631Z,50.63
2018-12-04T10:09:44.643Z,45
2018-12-04T10:10:44.776Z,45
2018-12-04T10:11:45.195Z,45
2018-12-04T10:12:47.293Z,50.63
2018-12-04T10:13:46.779Z,50.63
2018-12-04T10:14:48.032Z,45
2018-12-04T10:15:48.163Z,39.38
2018-12-04T10:16:49.868Z,39.38
2018-12-04T10:17:50.686Z,50.63
2018-12-04T10:18:51.375Z,67.5
2018-12-04T10:19:52.341Z,90
2018-12-04T10:20:52.472Z,95.63
2018-12-04T10:21:53.604Z,101.25
2018-12-04T10:22:55.018Z,101.25
2018-12-04T10:23:56.262Z,140.63
2018-12-04T10:24:56.681Z,180
2018-12-04T10:25:57.378Z,236.25
2018-12-04T10:26:58.066Z,270
2018-12-04T10:27:59.193Z,286.88
2018-12-04T10:29:00.438Z,281.25
2018-12-04T10:30:02.996Z,275.63
2018-12-04T10:31:01.407Z,275.63
2018-12-04T10:32:02.375Z,247.5
2018-12-04T10:33:03.073Z,208.13
2018-12-04T10:34:22.244Z,185.63
2018-12-04T10:34:34.776Z,185.63
2018-12-04T10:34:57.539Z,191.25
2018-12-04T10:35:05.321Z,191.25
2018-12-04T10:36:22.865Z,202.5
2018-12-04T10:36:31.678Z,208.13
2018-12-04T10:37:28.288Z,213.75
2018-12-04T10:38:29.258Z,202.5
2018-12-04T10:39:29.669Z,191.25
2018-12-04T10:40:30.800Z,208.13
2018-12-04T10:41:31.223Z,196.88
2018-12-04T10:42:32.533Z,191.25
2018-12-04T10:43:32.207Z,202.5
2018-12-04T10:44:33.714Z,213.75
2018-12-04T10:45:36.480Z,219.38
2018-12-04T10:46:35.531Z,196.88
2018-12-04T10:47:36.115Z,168.75
2018-12-04T10:48:36.526Z,163.13
2018-12-04T10:49:36.663Z,163.13
2018-12-04T10:50:38.097Z,157.5
2018-12-04T10:51:51.726Z,123.75
2018-12-04T10:52:51.285Z,95.63
2018-12-04T10:53:52.978Z,73.13
2018-12-04T10:54:54.502Z,61.88
2018-12-04T10:55:54.406Z,39.38
2018-12-04T10:56:54.539Z,22.5
2018-12-04T10:57:56.226Z,16.88
2018-12-04T10:58:56.638Z,11.25
2018-12-04T10:59:57.370Z,16.88
2018-12-04T11:00:57.782Z,22.5
2018-12-04T11:02:00.312Z,28.13
2018-12-04T11:03:00.286Z,33.75
2018-12-04T11:04:01.526Z,39.38
2018-12-04T11:05:01.218Z,39.38
2018-12-04T11:06:14.143Z,45
2018-12-04T11:07:14.972Z,45
2018-12-04T11:08:15.424Z,39.38
2018-12-04T11:09:15.832Z,39.38
2018-12-04T11:10:16.243Z,39.38
2018-12-04T11:11:16.661Z,45
2018-12-04T11:12:17.316Z,50.63
2018-12-04T11:13:17.726Z,56.25
2018-12-04T11:14:18.483Z,67.5
2018-12-04T11:15:19.448Z,84.38
2018-12-04T11:16:19.502Z,95.63
2018-12-04T11:17:20.856Z,95.63
2018-12-04T11:18:21.541Z,90
2018-12-04T11:19:22.805Z,73.13
2018-12-04T11:20:25.533Z,61.88
2018-12-04T11:21:25.531Z,56.25
2018-12-04T11:22:25.533Z,61.88
2018-12-04T11:23:25.811Z,67.5
2018-12-04T11:24:28.995Z,84.38
2018-12-04T11:25:26.807Z,90
2018-12-04T11:26:28.161Z,84.38
2018-12-04T11:27:28.175Z,73.13
2018-12-04T11:28:44.923Z,61.88
2018-12-04T11:29:41.348Z,56.25
2018-12-04T11:30:41.751Z,50.63
2018-12-04T11:31:42.436Z,45
2018-12-04T11:32:43.694Z,33.75
2018-12-04T11:33:43.824Z,28.13
2018-12-04T11:34:44.954Z,22.5
2018-12-04T11:35:50.858Z,22.5
2018-12-04T11:37:05.372Z,16.88
2018-12-04T11:38:01.681Z,16.88
2018-12-04T11:39:05.767Z,16.88
2018-12-04T11:40:03.893Z,16.88
2018-12-04T11:41:04.137Z,16.88
2018-12-04T11:42:20.790Z,16.88
2018-12-04T11:43:36.713Z,16.88
2018-12-04T11:43:47.566Z,16.88
2018-12-04T11:43:56.532Z,16.88
2018-12-04T11:45:08.885Z,16.88
2018-12-04T11:46:09.175Z,16.88
2018-12-04T11:47:12.861Z,16.88
2018-12-04T11:48:11.732Z,16.88
2018-12-04T11:49:13.289Z,11.25
2018-12-04T11:50:13.975Z,11.25
2018-12-04T11:51:14.396Z,11.25
2018-12-04T11:52:16.086Z,11.25
2018-12-04T11:53:16.492Z,11.25
2018-12-04T11:54:22.486Z,11.25
2018-12-04T11:54:33.121Z,16.88
2018-12-04T11:54:44.474Z,16.88
2018-12-04T11:55:43.563Z,16.88
2018-12-04T11:56:46.575Z,22.5
2018-12-04T11:57:45.705Z,28.13
2018-12-04T11:58:46.672Z,33.75
2018-12-04T11:59:47.081Z,39.38
2018-12-04T12:00:48.045Z,39.38
2018-12-04T12:01:49.564Z,45
2018-12-04T12:02:49.169Z,39.38
2018-12-04T12:03:49.577Z,39.38
2018-12-04T12:04:50.553Z,33.75
2018-12-04T12:05:56.103Z,28.13
2018-12-04T12:06:06.954Z,28.13
2018-12-04T12:07:04.215Z,22.5
2018-12-04T12:08:04.357Z,16.88
2018-12-04T12:09:05.317Z,16.88
2018-12-04T12:10:06.008Z,16.88
2018-12-04T12:11:06.417Z,16.88
2018-12-04T12:12:07.379Z,16.88
2018-12-04T12:13:07.512Z,16.88
2018-12-04T12:14:08.695Z,16.88
2018-12-04T12:15:09.382Z,16.88
2018-12-04T12:16:10.078Z,16.88
2018-12-04T12:17:10.908Z,16.88
2018-12-04T12:18:26.049Z,16.88
2018-12-04T12:19:24.550Z,11.25
2018-12-04T12:20:24.725Z,11.25
2018-12-04T12:21:26.699Z,11.25
2018-12-04T12:22:27.434Z,11.25
2018-12-04T12:23:27.576Z,11.25
2018-12-04T12:24:29.263Z,11.25
2018-12-04T12:25:30.231Z,11.25
2018-12-04T12:26:30.640Z,11.25
2018-12-04T12:27:32.062Z,11.25
2018-12-04T12:28:32.474Z,11.25
2018-12-04T12:29:32.855Z,11.25
2018-12-04T12:30:33.821Z,11.25
2018-12-04T12:31:34.508Z,16.88
2018-12-04T12:32:35.949Z,16.88
2018-12-04T12:33:37.079Z,16.88
2018-12-04T12:34:38.488Z,16.88
2018-12-04T12:35:39.504Z,22.5
2018-12-04T12:36:40.193Z,28.13
2018-12-04T12:37:41.170Z,39.38
2018-12-04T12:38:41.353Z,45
2018-12-04T12:39:43.003Z,39.38
2018-12-04T12:40:43.971Z,33.75
2018-12-04T12:41:44.382Z,28.13
2018-12-04T12:43:03.845Z,22.5
2018-12-04T12:43:13.938Z,22.5
2018-12-04T12:44:10.200Z,16.88
2018-12-04T12:45:11.165Z,16.88
2018-12-04T12:46:11.576Z,16.88
2018-12-04T12:47:18.886Z,16.88
2018-12-04T12:47:30.650Z,16.88
2018-12-04T12:47:43.018Z,16.88
2018-12-04T12:47:52.920Z,16.88
2018-12-04T12:48:55.440Z,16.88
2018-12-04T12:49:03.404Z,16.88
2018-12-04T12:50:01.712Z,16.88
2018-12-04T12:51:05.117Z,22.5
2018-12-04T12:52:04.498Z,22.5
2018-12-04T12:53:05.188Z,28.13
2018-12-04T12:54:05.598Z,28.13
2018-12-04T12:55:05.982Z,28.13
2018-12-04T12:56:06.669Z,33.75
2018-12-04T12:57:06.800Z,33.75
2018-12-04T12:58:08.806Z,39.38
2018-12-04T12:59:09.499Z,39.38
2018-12-04T13:00:10.311Z,39.38
2018-12-04T13:01:11.028Z,39.38
2018-12-04T13:02:12.558Z,39.38
2018-12-04T13:03:13.251Z,33.75
2018-12-04T13:04:14.490Z,33.75
2018-12-04T13:05:14.634Z,28.13
2018-12-04T13:06:21.926Z,28.13
2018-12-04T13:06:34.433Z,22.5
2018-12-04T13:06:44.655Z,22.5
2018-12-04T13:07:41.467Z,22.5
2018-12-04T13:08:42.602Z,22.5
2018-12-04T13:09:44.576Z,22.5
2018-12-04T13:10:44.263Z,22.5
2018-12-04T13:11:45.234Z,22.5
2018-12-04T13:12:45.649Z,22.5
2018-12-04T13:13:46.073Z,28.13
2018-12-04T13:14:47.350Z,28.13
2018-12-04T13:15:47.344Z,28.13
2018-12-04T13:16:48.046Z,28.13
2018-12-04T13:17:49.469Z,28.13
2018-12-04T13:18:50.163Z,22.5
2018-12-04T13:20:07.054Z,22.5
2018-12-04T13:20:19.629Z,22.5
2018-12-04T13:21:15.840Z,22.5
2018-12-04T13:22:16.839Z,22.5
2018-12-04T13:23:19.178Z,16.88
2018-12-04T13:24:19.442Z,16.88
2018-12-04T13:25:19.716Z,16.88
2018-12-04T13:26:21.334Z,11.25
2018-12-04T13:27:24.564Z,11.25
2018-12-04T13:28:27.655Z,11.25
2018-12-04T13:28:40.612Z,11.25
2018-12-04T13:29:37.528Z,16.88
2018-12-04T13:30:42.286Z,16.88
2018-12-04T13:31:39.919Z,22.5
2018-12-04T13:32:44.893Z,22.5
2018-12-04T13:32:57.957Z,22.5
2018-12-04T13:33:05.911Z,22.5
2018-12-04T13:34:05.654Z,33.75
2018-12-04T13:35:06.917Z,39.38
2018-12-04T13:36:07.908Z,45
2018-12-04T13:37:27.137Z,45
2018-12-04T13:37:37.165Z,45
2018-12-04T13:38:35.564Z,50.63
2018-12-04T13:39:35.560Z,50.63
2018-12-04T13:40:35.729Z,50.63
2018-12-04T13:41:36.778Z,45
2018-12-04T13:42:37.210Z,39.38
2018-12-04T13:43:37.371Z,28.13
2018-12-04T13:44:37.821Z,28.13
2018-12-04T13:45:42.712Z,22.5